sensor_id;sensor_type;location;lat;lon;timestamp;pressure;altitude;pressure_sealevel;temperature;humidity
12791;BME280;6459;42.678;23.310;2022-07-29T00:00:04;53935.81;;;-144.00;62.36
12791;BME280;6459;42.678;23.310;2022-07-29T00:02:33;53945.78;;;-144.00;61.91
12791;BME280;6459;42.678;23.310;2022-07-29T00:05:03;53953.75;;;-144.00;61.70
12791;BME280;6459;42.678;23.310;2022-07-29T00:07:32;53909.91;;;-144.00;61.40
12791;BME280;6459;42.678;23.310;2022-07-29T00:10:00;53941.78;;;-144.00;61.23
12791;BME280;6459;42.678;23.310;2022-07-29T00:12:28;53945.78;;;-144.00;61.66
12791;BME280;6459;42.678;23.310;2022-07-29T00:14:57;53923.84;;;-144.00;62.17
12791;BME280;6459;42.678;23.310;2022-07-29T00:17:26;53969.69;;;-144.00;62.70
12791;BME280;6459;42.678;23.310;2022-07-29T00:19:54;53941.78;;;-144.00;63.14
12791;BME280;6459;42.678;23.310;2022-07-29T00:22:25;53955.72;;;-144.00;63.21
12791;BME280;6459;42.678;23.310;2022-07-29T00:24:56;53939.78;;;-144.00;62.85
12791;BME280;6459;42.678;23.310;2022-07-29T00:27:27;53937.81;;;-144.00;62.63
12791;BME280;6459;42.678;23.310;2022-07-29T00:29:55;53957.72;;;-144.00;62.14
12791;BME280;6459;42.678;23.310;2022-07-29T00:32:23;53890.00;;;-144.00;61.21
12791;BME280;6459;42.678;23.310;2022-07-29T00:34:51;53899.94;;;-144.00;61.56
12791;BME280;6459;42.678;23.310;2022-07-29T00:37:38;53917.88;;;-144.00;60.65
12791;BME280;6459;42.678;23.310;2022-07-29T00:40:08;53882.03;;;-144.00;60.14
12791;BME280;6459;42.678;23.310;2022-07-29T00:42:42;53905.94;;;-144.00;59.98
12791;BME280;6459;42.678;23.310;2022-07-29T00:45:11;53933.81;;;-144.00;59.92
12791;BME280;6459;42.678;23.310;2022-07-29T00:47:40;53917.88;;;-144.00;59.70
12791;BME280;6459;42.678;23.310;2022-07-29T00:50:10;53933.81;;;-144.00;60.04
12791;BME280;6459;42.678;23.310;2022-07-29T00:52:44;53931.81;;;-144.00;60.89
12791;BME280;6459;42.678;23.310;2022-07-29T00:55:14;53925.84;;;-144.00;61.26
12791;BME280;6459;42.678;23.310;2022-07-29T00:57:43;53965.69;;;-144.00;61.90
12791;BME280;6459;42.678;23.310;2022-07-29T01:00:14;53963.69;;;-144.00;62.14
12791;BME280;6459;42.678;23.310;2022-07-29T01:02:44;53969.69;;;-144.00;62.69
12791;BME280;6459;42.678;23.310;2022-07-29T01:05:16;54005.53;;;-144.00;63.24
12791;BME280;6459;42.678;23.310;2022-07-29T01:07:49;53929.84;;;-144.00;63.28
12791;BME280;6459;42.678;23.310;2022-07-29T01:10:19;53965.69;;;-144.00;63.89
12791;BME280;6459;42.678;23.310;2022-07-29T01:12:50;53973.66;;;-144.00;63.62
12791;BME280;6459;42.678;23.310;2022-07-29T01:15:20;53973.66;;;-144.00;63.75
12791;BME280;6459;42.678;23.310;2022-07-29T01:17:54;53933.81;;;-144.00;63.99
12791;BME280;6459;42.678;23.310;2022-07-29T01:20:30;53969.69;;;-144.00;64.22
12791;BME280;6459;42.678;23.310;2022-07-29T01:23:20;53969.69;;;-144.00;64.21
12791;BME280;6459;42.678;23.310;2022-07-29T01:26:04;53965.69;;;-144.00;64.06
12791;BME280;6459;42.678;23.310;2022-07-29T01:28:55;53981.63;;;-144.00;63.85
12791;BME280;6459;42.678;23.310;2022-07-29T01:31:28;53967.69;;;-144.00;63.99
12791;BME280;6459;42.678;23.310;2022-07-29T01:34:08;53965.69;;;-144.00;63.94
12791;BME280;6459;42.678;23.310;2022-07-29T01:36:43;53941.78;;;-144.00;63.87
12791;BME280;6459;42.678;23.310;2022-07-29T01:39:18;53999.56;;;-144.00;64.39
12791;BME280;6459;42.678;23.310;2022-07-29T01:41:52;53953.75;;;-144.00;64.79
12791;BME280;6459;42.678;23.310;2022-07-29T01:44:31;53989.59;;;-144.00;64.95
12791;BME280;6459;42.678;23.310;2022-07-29T01:47:05;54009.53;;;-144.00;64.89
12791;BME280;6459;42.678;23.310;2022-07-29T01:49:46;53957.72;;;-144.00;65.31
12791;BME280;6459;42.678;23.310;2022-07-29T01:52:21;53995.56;;;-144.00;65.65
12791;BME280;6459;42.678;23.310;2022-07-29T01:54:54;53997.56;;;-144.00;65.68
12791;BME280;6459;42.678;23.310;2022-07-29T01:57:26;53995.56;;;-144.00;65.67
12791;BME280;6459;42.678;23.310;2022-07-29T01:59:58;53977.66;;;-144.00;65.43
12791;BME280;6459;42.678;23.310;2022-07-29T02:02:28;53973.66;;;-144.00;65.24
12791;BME280;6459;42.678;23.310;2022-07-29T02:04:58;53979.63;;;-144.00;65.34
12791;BME280;6459;42.678;23.310;2022-07-29T02:07:29;53949.75;;;-144.00;65.38
12791;BME280;6459;42.678;23.310;2022-07-29T02:10:00;53971.66;;;-144.00;65.10
12791;BME280;6459;42.678;23.310;2022-07-29T02:12:31;53979.63;;;-144.00;65.31
12791;BME280;6459;42.678;23.310;2022-07-29T02:15:03;53975.66;;;-144.00;65.58
12791;BME280;6459;42.678;23.310;2022-07-29T02:17:35;53985.63;;;-144.00;66.07
12791;BME280;6459;42.678;23.310;2022-07-29T02:20:08;53955.72;;;-144.00;65.94
12791;BME280;6459;42.678;23.310;2022-07-29T02:22:38;53989.59;;;-144.00;66.22
12791;BME280;6459;42.678;23.310;2022-07-29T02:25:08;53981.63;;;-144.00;66.51
12791;BME280;6459;42.678;23.310;2022-07-29T02:27:41;53977.66;;;-144.00;66.43
12791;BME280;6459;42.678;23.310;2022-07-29T02:30:12;54007.53;;;-144.00;66.92
12791;BME280;6459;42.678;23.310;2022-07-29T02:32:41;53967.69;;;-144.00;66.69
12791;BME280;6459;42.678;23.310;2022-07-29T02:35:14;53977.66;;;-144.00;66.47
12791;BME280;6459;42.678;23.310;2022-07-29T02:37:44;53965.69;;;-144.00;65.86
12791;BME280;6459;42.678;23.310;2022-07-29T02:40:38;53953.75;;;-144.00;65.69
12791;BME280;6459;42.678;23.310;2022-07-29T02:43:08;53965.69;;;-144.00;65.67
12791;BME280;6459;42.678;23.310;2022-07-29T02:45:38;53979.63;;;-144.00;65.41
12791;BME280;6459;42.678;23.310;2022-07-29T02:48:10;53931.81;;;-144.00;65.79
12791;BME280;6459;42.678;23.310;2022-07-29T02:50:45;53997.56;;;-144.00;65.49
12791;BME280;6459;42.678;23.310;2022-07-29T02:53:18;53953.75;;;-144.00;65.70
12791;BME280;6459;42.678;23.310;2022-07-29T02:55:54;53987.59;;;-144.00;65.64
12791;BME280;6459;42.678;23.310;2022-07-29T02:58:27;53963.69;;;-144.00;65.29
12791;BME280;6459;42.678;23.310;2022-07-29T03:01:00;53969.69;;;-144.00;65.25
12791;BME280;6459;42.678;23.310;2022-07-29T03:03:36;53971.66;;;-144.00;65.35
12791;BME280;6459;42.678;23.310;2022-07-29T03:06:05;53955.72;;;-144.00;65.19
12791;BME280;6459;42.678;23.310;2022-07-29T03:08:54;53985.63;;;-144.00;66.04
12791;BME280;6459;42.678;23.310;2022-07-29T03:11:23;53999.56;;;-144.00;66.28
12791;BME280;6459;42.678;23.310;2022-07-29T03:14:13;53943.78;;;-144.00;66.69
12791;BME280;6459;42.678;23.310;2022-07-29T03:16:43;53991.59;;;-144.00;66.73
12791;BME280;6459;42.678;23.310;2022-07-29T03:19:12;54025.47;;;-144.00;67.15
12791;BME280;6459;42.678;23.310;2022-07-29T03:21:40;53985.63;;;-144.00;67.18
12791;BME280;6459;42.678;23.310;2022-07-29T03:24:08;53993.59;;;-144.00;66.96
12791;BME280;6459;42.678;23.310;2022-07-29T03:26:37;54009.53;;;-144.00;66.69
12791;BME280;6459;42.678;23.310;2022-07-29T03:29:05;53989.59;;;-144.00;66.39
12791;BME280;6459;42.678;23.310;2022-07-29T03:31:39;53969.69;;;-144.00;66.28
12791;BME280;6459;42.678;23.310;2022-07-29T03:34:10;54005.53;;;-144.00;66.63
12791;BME280;6459;42.678;23.310;2022-07-29T03:36:40;54023.47;;;-144.00;67.59
12791;BME280;6459;42.678;23.310;2022-07-29T03:39:09;53969.69;;;-144.00;67.18
12791;BME280;6459;42.678;23.310;2022-07-29T03:41:38;53983.63;;;-144.00;67.27
12791;BME280;6459;42.678;23.310;2022-07-29T03:44:09;54015.50;;;-144.00;67.52
12791;BME280;6459;42.678;23.310;2022-07-29T03:46:48;54019.47;;;-144.00;67.88
12791;BME280;6459;42.678;23.310;2022-07-29T03:49:19;53985.63;;;-144.00;67.95
12791;BME280;6459;42.678;23.310;2022-07-29T03:51:48;53993.59;;;-144.00;67.22
12791;BME280;6459;42.678;23.310;2022-07-29T03:54:16;53971.66;;;-144.00;66.94
12791;BME280;6459;42.678;23.310;2022-07-29T03:56:46;53973.66;;;-144.00;66.88
12791;BME280;6459;42.678;23.310;2022-07-29T03:59:17;54003.53;;;-144.00;66.21
12791;BME280;6459;42.678;23.310;2022-07-29T04:01:47;53979.63;;;-144.00;65.65
12791;BME280;6459;42.678;23.310;2022-07-29T04:04:17;53971.66;;;-144.00;65.31
12791;BME280;6459;42.678;23.310;2022-07-29T04:06:46;54009.53;;;-144.00;65.48
12791;BME280;6459;42.678;23.310;2022-07-29T04:09:14;53985.63;;;-144.00;65.11
12791;BME280;6459;42.678;23.310;2022-07-29T04:11:43;53977.66;;;-144.00;65.13
12791;BME280;6459;42.678;23.310;2022-07-29T04:14:35;53985.63;;;-144.00;65.27
12791;BME280;6459;42.678;23.310;2022-07-29T04:17:04;53993.59;;;-144.00;65.18
12791;BME280;6459;42.678;23.310;2022-07-29T04:19:34;53965.69;;;-144.00;65.11
12791;BME280;6459;42.678;23.310;2022-07-29T04:22:02;53947.75;;;-144.00;65.33
12791;BME280;6459;42.678;23.310;2022-07-29T04:24:31;53967.69;;;-144.00;65.32
12791;BME280;6459;42.678;23.310;2022-07-29T04:27:02;53973.66;;;-144.00;65.50
12791;BME280;6459;42.678;23.310;2022-07-29T04:29:30;53949.75;;;-144.00;65.29
12791;BME280;6459;42.678;23.310;2022-07-29T04:31:58;53959.72;;;-144.00;64.98
12791;BME280;6459;42.678;23.310;2022-07-29T04:34:27;53977.66;;;-144.00;65.04
12791;BME280;6459;42.678;23.310;2022-07-29T04:36:56;53961.72;;;-144.00;64.85
12791;BME280;6459;42.678;23.310;2022-07-29T04:39:25;53985.63;;;-144.00;64.81
12791;BME280;6459;42.678;23.310;2022-07-29T04:41:56;53973.66;;;-144.00;64.77
12791;BME280;6459;42.678;23.310;2022-07-29T04:44:24;53953.75;;;-144.00;64.21
12791;BME280;6459;42.678;23.310;2022-07-29T04:46:55;53957.72;;;-144.00;63.56
12791;BME280;6459;42.678;23.310;2022-07-29T04:49:23;53975.66;;;-144.00;62.44
12791;BME280;6459;42.678;23.310;2022-07-29T04:51:52;53961.72;;;-144.00;62.18
12791;BME280;6459;42.678;23.310;2022-07-29T04:54:22;53921.88;;;-144.00;61.73
12791;BME280;6459;42.678;23.310;2022-07-29T04:56:52;53937.81;;;-144.00;61.00
12791;BME280;6459;42.678;23.310;2022-07-29T04:59:20;53870.06;;;-144.00;60.65
12791;BME280;6459;42.678;23.310;2022-07-29T05:01:48;53806.31;;;-144.00;56.82
12791;BME280;6459;42.678;23.310;2022-07-29T05:04:17;53762.50;;;-144.00;53.49
12791;BME280;6459;42.678;23.310;2022-07-29T05:06:46;53738.59;;;-144.00;50.69
12791;BME280;6459;42.678;23.310;2022-07-29T05:09:14;53708.72;;;-144.00;50.42
12791;BME280;6459;42.678;23.310;2022-07-29T05:11:44;53722.66;;;-144.00;47.50
12791;BME280;6459;42.678;23.310;2022-07-29T05:14:12;53670.84;;;-144.00;45.78
12791;BME280;6459;42.678;23.310;2022-07-29T05:16:41;53664.88;;;-144.00;45.47
12791;BME280;6459;42.678;23.310;2022-07-29T05:19:10;53601.13;;;-144.00;44.67
12791;BME280;6459;42.678;23.310;2022-07-29T05:21:40;53583.22;;;-144.00;42.25
12791;BME280;6459;42.678;23.310;2022-07-29T05:24:09;53567.28;;;-144.00;41.29
12791;BME280;6459;42.678;23.310;2022-07-29T05:26:37;53567.28;;;-144.00;41.63
12791;BME280;6459;42.678;23.310;2022-07-29T05:29:07;53497.56;;;-144.00;39.53
12791;BME280;6459;42.678;23.310;2022-07-29T05:31:55;53429.81;;;-144.00;38.08
12791;BME280;6459;42.678;23.310;2022-07-29T05:34:24;53449.75;;;-144.00;37.33
12791;BME280;6459;42.678;23.310;2022-07-29T05:36:52;53437.78;;;-144.00;37.20
12791;BME280;6459;42.678;23.310;2022-07-29T05:39:21;53459.69;;;-144.00;37.49
12791;BME280;6459;42.678;23.310;2022-07-29T05:42:09;53459.69;;;-144.00;37.03
12791;BME280;6459;42.678;23.310;2022-07-29T05:44:39;53561.28;;;-144.00;38.99
12791;BME280;6459;42.678;23.310;2022-07-29T05:47:08;53603.13;;;-144.00;40.59
12791;BME280;6459;42.678;23.310;2022-07-29T05:49:36;53635.00;;;-144.00;42.14
12791;BME280;6459;42.678;23.310;2022-07-29T05:52:12;53646.94;;;-144.00;43.21
12791;BME280;6459;42.678;23.310;2022-07-29T05:54:41;53650.94;;;-144.00;43.86
12791;BME280;6459;42.678;23.310;2022-07-29T05:57:15;53702.72;;;-144.00;44.33
12791;BME280;6459;42.678;23.310;2022-07-29T05:59:47;53696.75;;;-144.00;45.21
12791;BME280;6459;42.678;23.310;2022-07-29T06:02:16;53692.78;;;-144.00;45.51
12791;BME280;6459;42.678;23.310;2022-07-29T06:04:44;53750.53;;;-144.00;45.83
12791;BME280;6459;42.678;23.310;2022-07-29T06:07:13;53682.81;;;-144.00;46.17
12791;BME280;6459;42.678;23.310;2022-07-29T06:09:43;53726.63;;;-144.00;46.39
12791;BME280;6459;42.678;23.310;2022-07-29T06:12:11;53758.50;;;-144.00;47.17
12791;BME280;6459;42.678;23.310;2022-07-29T06:14:39;53714.69;;;-144.00;47.42
12791;BME280;6459;42.678;23.310;2022-07-29T06:17:09;53718.66;;;-144.00;46.85
12791;BME280;6459;42.678;23.310;2022-07-29T06:19:38;53742.56;;;-144.00;47.30
12791;BME280;6459;42.678;23.310;2022-07-29T06:22:08;53798.34;;;-144.00;47.14
12791;BME280;6459;42.678;23.310;2022-07-29T06:24:36;53706.72;;;-144.00;47.78
12791;BME280;6459;42.678;23.310;2022-07-29T06:27:08;53772.44;;;-144.00;47.84
12791;BME280;6459;42.678;23.310;2022-07-29T06:29:36;53724.66;;;-144.00;47.90
12791;BME280;6459;42.678;23.310;2022-07-29T06:32:05;53750.53;;;-144.00;48.00
12791;BME280;6459;42.678;23.310;2022-07-29T06:34:35;53768.47;;;-144.00;48.15
12791;BME280;6459;42.678;23.310;2022-07-29T06:37:08;53766.47;;;-144.00;48.67
12791;BME280;6459;42.678;23.310;2022-07-29T06:39:41;53742.56;;;-144.00;48.87
12791;BME280;6459;42.678;23.310;2022-07-29T06:42:09;53742.56;;;-144.00;48.96
12791;BME280;6459;42.678;23.310;2022-07-29T06:44:38;53746.56;;;-144.00;48.78
12791;BME280;6459;42.678;23.310;2022-07-29T06:47:06;53742.56;;;-144.00;48.91
12791;BME280;6459;42.678;23.310;2022-07-29T06:49:37;53764.47;;;-144.00;49.39
12791;BME280;6459;42.678;23.310;2022-07-29T06:52:06;53746.56;;;-144.00;49.24
12791;BME280;6459;42.678;23.310;2022-07-29T06:54:34;53762.50;;;-144.00;49.08
12791;BME280;6459;42.678;23.310;2022-07-29T06:57:02;53770.47;;;-144.00;48.72
12791;BME280;6459;42.678;23.310;2022-07-29T06:59:31;53746.56;;;-144.00;48.69
12791;BME280;6459;42.678;23.310;2022-07-29T07:02:01;53762.50;;;-144.00;48.47
12791;BME280;6459;42.678;23.310;2022-07-29T07:04:30;53722.66;;;-144.00;48.40
12791;BME280;6459;42.678;23.310;2022-07-29T07:07:00;53746.56;;;-144.00;48.52
12791;BME280;6459;42.678;23.310;2022-07-29T07:09:52;53774.44;;;-144.00;48.62
12791;BME280;6459;42.678;23.310;2022-07-29T07:12:20;53766.47;;;-144.00;48.44
12791;BME280;6459;42.678;23.310;2022-07-29T07:14:48;53758.50;;;-144.00;48.15
12791;BME280;6459;42.678;23.310;2022-07-29T07:17:16;53776.44;;;-144.00;48.49
12791;BME280;6459;42.678;23.310;2022-07-29T07:19:45;53752.53;;;-144.00;48.77
12791;BME280;6459;42.678;23.310;2022-07-29T07:22:14;53766.47;;;-144.00;48.76
12791;BME280;6459;42.678;23.310;2022-07-29T07:24:43;53746.56;;;-144.00;48.57
12791;BME280;6459;42.678;23.310;2022-07-29T07:27:11;53752.53;;;-144.00;48.00
12791;BME280;6459;42.678;23.310;2022-07-29T07:29:39;53686.78;;;-144.00;47.53
12791;BME280;6459;42.678;23.310;2022-07-29T07:32:10;53774.44;;;-144.00;47.96
12791;BME280;6459;42.678;23.310;2022-07-29T07:34:43;53758.50;;;-144.00;47.73
12791;BME280;6459;42.678;23.310;2022-07-29T07:37:16;53758.50;;;-144.00;47.80
12791;BME280;6459;42.678;23.310;2022-07-29T07:39:46;53754.53;;;-144.00;47.40
12791;BME280;6459;42.678;23.310;2022-07-29T07:42:14;53742.56;;;-144.00;47.80
12791;BME280;6459;42.678;23.310;2022-07-29T07:44:43;53758.50;;;-144.00;46.95
12791;BME280;6459;42.678;23.310;2022-07-29T07:47:32;53754.53;;;-144.00;46.90
12791;BME280;6459;42.678;23.310;2022-07-29T07:50:00;53730.63;;;-144.00;46.96
12791;BME280;6459;42.678;23.310;2022-07-29T07:52:30;53738.59;;;-144.00;46.99
12791;BME280;6459;42.678;23.310;2022-07-29T07:54:58;53738.59;;;-144.00;46.44
12791;BME280;6459;42.678;23.310;2022-07-29T07:57:26;53738.59;;;-144.00;46.34
12791;BME280;6459;42.678;23.310;2022-07-29T07:59:56;53736.59;;;-144.00;45.80
12791;BME280;6459;42.678;23.310;2022-07-29T08:02:24;53702.72;;;-144.00;45.74
12791;BME280;6459;42.678;23.310;2022-07-29T08:04:54;53714.69;;;-144.00;45.58
12791;BME280;6459;42.678;23.310;2022-07-29T08:07:29;53694.75;;;-144.00;45.10
12791;BME280;6459;42.678;23.310;2022-07-29T08:10:00;53694.75;;;-144.00;45.70
12791;BME280;6459;42.678;23.310;2022-07-29T08:12:35;53690.78;;;-144.00;45.29
12791;BME280;6459;42.678;23.310;2022-07-29T08:15:04;53680.81;;;-144.00;44.97
12791;BME280;6459;42.678;23.310;2022-07-29T08:17:34;53732.63;;;-144.00;45.13
12791;BME280;6459;42.678;23.310;2022-07-29T08:20:03;53702.72;;;-144.00;44.58
12791;BME280;6459;42.678;23.310;2022-07-29T08:22:36;53696.75;;;-144.00;44.60
12791;BME280;6459;42.678;23.310;2022-07-29T08:25:05;53712.69;;;-144.00;44.28
12791;BME280;6459;42.678;23.310;2022-07-29T08:27:34;53694.75;;;-144.00;44.34
12791;BME280;6459;42.678;23.310;2022-07-29T08:30:10;53670.84;;;-144.00;43.63
12791;BME280;6459;42.678;23.310;2022-07-29T08:32:39;53694.75;;;-144.00;43.48
12791;BME280;6459;42.678;23.310;2022-07-29T08:35:23;53692.78;;;-144.00;43.56
12791;BME280;6459;42.678;23.310;2022-07-29T08:37:53;53682.81;;;-144.00;43.38
12791;BME280;6459;42.678;23.310;2022-07-29T08:40:23;53682.81;;;-144.00;42.80
12791;BME280;6459;42.678;23.310;2022-07-29T08:42:59;53744.56;;;-144.00;42.71
12791;BME280;6459;42.678;23.310;2022-07-29T08:45:28;53674.84;;;-144.00;42.12
12791;BME280;6459;42.678;23.310;2022-07-29T08:47:57;53658.91;;;-144.00;41.47
12791;BME280;6459;42.678;23.310;2022-07-29T08:50:26;53682.81;;;-144.00;42.27
12791;BME280;6459;42.678;23.310;2022-07-29T08:52:56;53658.91;;;-144.00;41.34
12791;BME280;6459;42.678;23.310;2022-07-29T08:55:26;53623.03;;;-144.00;41.04
12791;BME280;6459;42.678;23.310;2022-07-29T08:57:55;53672.84;;;-144.00;41.11
12791;BME280;6459;42.678;23.310;2022-07-29T09:00:25;53658.91;;;-144.00;41.15
12791;BME280;6459;42.678;23.310;2022-07-29T09:02:57;53666.88;;;-144.00;40.45
12791;BME280;6459;42.678;23.310;2022-07-29T09:05:27;53654.91;;;-144.00;40.75
12791;BME280;6459;42.678;23.310;2022-07-29T09:07:58;53633.00;;;-144.00;40.77
12791;BME280;6459;42.678;23.310;2022-07-29T09:10:30;53631.00;;;-144.00;39.85
12791;BME280;6459;42.678;23.310;2022-07-29T09:12:58;53619.06;;;-144.00;39.76
12791;BME280;6459;42.678;23.310;2022-07-29T09:15:27;53638.97;;;-144.00;39.62
12791;BME280;6459;42.678;23.310;2022-07-29T09:17:55;53642.97;;;-144.00;39.76
12791;BME280;6459;42.678;23.310;2022-07-29T09:20:26;53646.94;;;-144.00;39.47
12791;BME280;6459;42.678;23.310;2022-07-29T09:23:19;53629.03;;;-144.00;39.39
12791;BME280;6459;42.678;23.310;2022-07-29T09:25:50;53629.03;;;-144.00;38.90
12791;BME280;6459;42.678;23.310;2022-07-29T09:28:18;53599.16;;;-144.00;39.10
12791;BME280;6459;42.678;23.310;2022-07-29T09:30:51;53605.13;;;-144.00;38.69
12791;BME280;6459;42.678;23.310;2022-07-29T09:33:20;53658.91;;;-144.00;38.12
12791;BME280;6459;42.678;23.310;2022-07-29T09:36:02;53573.25;;;-144.00;38.39
12791;BME280;6459;42.678;23.310;2022-07-29T09:38:33;53577.22;;;-144.00;38.34
12791;BME280;6459;42.678;23.310;2022-07-29T09:41:04;53609.09;;;-144.00;37.66
12791;BME280;6459;42.678;23.310;2022-07-29T09:43:34;53627.03;;;-144.00;37.38
12791;BME280;6459;42.678;23.310;2022-07-29T09:46:12;53603.13;;;-144.00;37.53
12791;BME280;6459;42.678;23.310;2022-07-29T09:48:41;53615.06;;;-144.00;37.60
12791;BME280;6459;42.678;23.310;2022-07-29T09:51:19;53571.25;;;-144.00;37.90
12791;BME280;6459;42.678;23.310;2022-07-29T09:54:21;53619.06;;;-144.00;38.12
12791;BME280;6459;42.678;23.310;2022-07-29T09:56:50;53595.16;;;-144.00;38.23
12791;BME280;6459;42.678;23.310;2022-07-29T09:59:19;53611.09;;;-144.00;38.16
12791;BME280;6459;42.678;23.310;2022-07-29T10:01:51;53619.06;;;-144.00;38.42
12791;BME280;6459;42.678;23.310;2022-07-29T10:04:20;53595.16;;;-144.00;38.54
12791;BME280;6459;42.678;23.310;2022-07-29T10:06:57;53583.22;;;-144.00;38.28
12791;BME280;6459;42.678;23.310;2022-07-29T10:09:32;53571.25;;;-144.00;38.18
12791;BME280;6459;42.678;23.310;2022-07-29T10:12:10;53571.25;;;-144.00;37.86
12791;BME280;6459;42.678;23.310;2022-07-29T10:14:41;53531.41;;;-144.00;37.88
12791;BME280;6459;42.678;23.310;2022-07-29T10:17:10;53567.28;;;-144.00;38.05
12791;BME280;6459;42.678;23.310;2022-07-29T10:19:39;53539.38;;;-144.00;38.00
12791;BME280;6459;42.678;23.310;2022-07-29T10:22:10;53575.25;;;-144.00;38.15
12791;BME280;6459;42.678;23.310;2022-07-29T10:24:40;53559.31;;;-144.00;38.24
12791;BME280;6459;42.678;23.310;2022-07-29T10:27:09;53571.25;;;-144.00;38.08
12791;BME280;6459;42.678;23.310;2022-07-29T10:29:39;53541.38;;;-144.00;37.25
12791;BME280;6459;42.678;23.310;2022-07-29T10:32:28;53561.28;;;-144.00;36.75
12791;BME280;6459;42.678;23.310;2022-07-29T10:35:12;53555.31;;;-144.00;36.79
12791;BME280;6459;42.678;23.310;2022-07-29T10:37:55;53581.22;;;-144.00;36.91
12791;BME280;6459;42.678;23.310;2022-07-29T10:41:03;53563.28;;;-144.00;36.80
12791;BME280;6459;42.678;23.310;2022-07-29T10:44:20;53559.31;;;-144.00;36.58
12791;BME280;6459;42.678;23.310;2022-07-29T10:47:14;53583.22;;;-144.00;36.61
12791;BME280;6459;42.678;23.310;2022-07-29T10:49:57;53531.41;;;-144.00;36.92
12791;BME280;6459;42.678;23.310;2022-07-29T10:52:52;53551.34;;;-144.00;36.00
12791;BME280;6459;42.678;23.310;2022-07-29T10:59:36;53549.34;;;-144.00;36.05
12791;BME280;6459;42.678;23.310;2022-07-29T11:02:45;53551.34;;;-144.00;35.92
12791;BME280;6459;42.678;23.310;2022-07-29T11:05:19;53529.41;;;-144.00;35.49
12791;BME280;6459;42.678;23.310;2022-07-29T11:08:22;53539.38;;;-144.00;35.88
12791;BME280;6459;42.678;23.310;2022-07-29T11:14:17;53503.53;;;-144.00;36.31
12791;BME280;6459;42.678;23.310;2022-07-29T11:17:06;53499.53;;;-144.00;35.94
12791;BME280;6459;42.678;23.310;2022-07-29T11:19:44;53499.53;;;-144.00;35.40
12791;BME280;6459;42.678;23.310;2022-07-29T11:22:32;53513.47;;;-144.00;34.95
12791;BME280;6459;42.678;23.310;2022-07-29T11:25:13;53535.41;;;-144.00;35.26
12791;BME280;6459;42.678;23.310;2022-07-29T11:27:43;53495.56;;;-144.00;35.33
12791;BME280;6459;42.678;23.310;2022-07-29T11:30:13;53483.59;;;-144.00;35.20
12791;BME280;6459;42.678;23.310;2022-07-29T11:32:51;53507.50;;;-144.00;35.06
12791;BME280;6459;42.678;23.310;2022-07-29T11:35:33;53495.56;;;-144.00;34.65
12791;BME280;6459;42.678;23.310;2022-07-29T11:38:25;53473.66;;;-144.00;35.22
12791;BME280;6459;42.678;23.310;2022-07-29T11:41:21;53483.59;;;-144.00;34.58
12791;BME280;6459;42.678;23.310;2022-07-29T11:43:52;53479.63;;;-144.00;34.45
12791;BME280;6459;42.678;23.310;2022-07-29T11:46:43;53495.56;;;-144.00;34.96
12791;BME280;6459;42.678;23.310;2022-07-29T11:49:18;53507.50;;;-144.00;34.95
12791;BME280;6459;42.678;23.310;2022-07-29T11:51:59;53503.53;;;-144.00;34.75
12791;BME280;6459;42.678;23.310;2022-07-29T11:54:31;53477.63;;;-144.00;34.82
12791;BME280;6459;42.678;23.310;2022-07-29T11:57:25;53455.72;;;-144.00;34.50
12791;BME280;6459;42.678;23.310;2022-07-29T12:00:09;53531.41;;;-144.00;34.55
12791;BME280;6459;42.678;23.310;2022-07-29T12:03:04;53487.59;;;-144.00;34.45
12791;BME280;6459;42.678;23.310;2022-07-29T12:05:37;53503.53;;;-144.00;34.87
12791;BME280;6459;42.678;23.310;2022-07-29T12:08:15;53487.59;;;-144.00;34.80
12791;BME280;6459;42.678;23.310;2022-07-29T12:10:46;53513.47;;;-144.00;34.58
12791;BME280;6459;42.678;23.310;2022-07-29T12:13:17;53491.56;;;-144.00;34.75
12791;BME280;6459;42.678;23.310;2022-07-29T12:15:54;53533.41;;;-144.00;34.53
12791;BME280;6459;42.678;23.310;2022-07-29T12:18:26;53517.47;;;-144.00;33.91
12791;BME280;6459;42.678;23.310;2022-07-29T12:21:00;53489.59;;;-144.00;34.25
12791;BME280;6459;42.678;23.310;2022-07-29T12:23:30;53503.53;;;-144.00;33.89
12791;BME280;6459;42.678;23.310;2022-07-29T12:26:04;53523.44;;;-144.00;33.80
12791;BME280;6459;42.678;23.310;2022-07-29T12:28:37;53469.66;;;-144.00;34.04
12791;BME280;6459;42.678;23.310;2022-07-29T12:31:08;53451.72;;;-144.00;34.04
12791;BME280;6459;42.678;23.310;2022-07-29T12:34:00;53427.84;;;-144.00;33.54
12791;BME280;6459;42.678;23.310;2022-07-29T12:36:30;53441.78;;;-144.00;33.83
12791;BME280;6459;42.678;23.310;2022-07-29T12:39:02;53479.63;;;-144.00;34.19
12791;BME280;6459;42.678;23.310;2022-07-29T12:41:30;53447.75;;;-144.00;33.75
12791;BME280;6459;42.678;23.310;2022-07-29T12:43:59;53447.75;;;-144.00;33.87
12791;BME280;6459;42.678;23.310;2022-07-29T12:46:30;53475.63;;;-144.00;33.83
12791;BME280;6459;42.678;23.310;2022-07-29T12:48:58;53439.78;;;-144.00;33.41
12791;BME280;6459;42.678;23.310;2022-07-29T12:51:32;53443.75;;;-144.00;33.44
12791;BME280;6459;42.678;23.310;2022-07-29T12:54:08;53433.81;;;-144.00;33.60
12791;BME280;6459;42.678;23.310;2022-07-29T12:56:38;53447.75;;;-144.00;33.14
12791;BME280;6459;42.678;23.310;2022-07-29T12:59:14;53459.69;;;-144.00;33.35
12791;BME280;6459;42.678;23.310;2022-07-29T13:02:02;53475.63;;;-144.00;33.12
12791;BME280;6459;42.678;23.310;2022-07-29T13:04:36;53455.72;;;-144.00;33.40
12791;BME280;6459;42.678;23.310;2022-07-29T13:07:09;53447.75;;;-144.00;32.99
12791;BME280;6459;42.678;23.310;2022-07-29T13:09:42;53447.75;;;-144.00;32.91
12791;BME280;6459;42.678;23.310;2022-07-29T13:12:12;53451.72;;;-144.00;32.61
12791;BME280;6459;42.678;23.310;2022-07-29T13:14:41;53445.75;;;-144.00;32.59
12791;BME280;6459;42.678;23.310;2022-07-29T13:17:12;53459.69;;;-144.00;32.62